createdAt,value
2023-05-14T00:02:02.450Z,15.28
2023-05-14T00:05:10.441Z,15.37
2023-05-14T00:11:36.581Z,14.62
2023-05-14T00:14:40.710Z,15.01
2023-05-14T00:17:44.471Z,15.01
2023-05-14T00:20:48.396Z,15.31
2023-05-14T00:23:52.903Z,15.06
2023-05-14T00:26:57.117Z,15.10
2023-05-14T00:30:07.167Z,15.45
2023-05-14T00:33:13.407Z,15.28
2023-05-14T00:36:39.878Z,15.10
2023-05-14T00:39:42.172Z,15.47
2023-05-14T00:42:47.313Z,15.37
2023-05-14T00:45:51.460Z,15.28
2023-05-14T00:48:55.403Z,15.24
2023-05-14T00:51:59.612Z,15.39
2023-05-14T00:55:03.888Z,15.03
2023-05-14T00:58:12.346Z,15.00
2023-05-14T01:01:26.925Z,15.05
2023-05-14T01:04:33.618Z,15.16
2023-05-14T01:07:39.174Z,14.99
2023-05-14T01:10:44.753Z,15.00
2023-05-14T01:13:53.720Z,14.95
2023-05-14T01:16:58.274Z,14.99
2023-05-14T01:20:06.473Z,14.87
2023-05-14T01:23:10.783Z,14.84
2023-05-14T01:26:16.464Z,14.95
2023-05-14T01:29:26.222Z,14.99
2023-05-14T01:32:30.273Z,14.88
2023-05-14T01:35:37.076Z,14.35
2023-05-14T01:38:42.249Z,14.81
2023-05-14T01:41:46.348Z,15.03
2023-05-14T01:44:50.272Z,15.15
2023-05-14T01:47:54.989Z,14.88
2023-05-14T01:51:02.373Z,14.68
2023-05-14T01:54:13.157Z,15.15
2023-05-14T01:57:21.884Z,15.32
2023-05-14T02:00:29.055Z,15.17
2023-05-14T02:03:34.797Z,14.81
2023-05-14T02:06:38.656Z,14.90
2023-05-14T02:09:49.238Z,14.44
2023-05-14T02:13:16.251Z,14.46
2023-05-14T02:16:18.703Z,14.30
2023-05-14T02:19:26.430Z,14.82
2023-05-14T02:22:30.763Z,15.07
2023-05-14T02:25:41.266Z,14.54
2023-05-14T02:28:45.626Z,14.76
2023-05-14T02:32:37.085Z,14.71
2023-05-14T02:35:17.106Z,14.85
2023-05-14T02:38:26.278Z,15.25
2023-05-14T02:41:31.785Z,15.05
2023-05-14T02:44:39.647Z,15.28
2023-05-14T02:47:46.280Z,15.18
2023-05-14T02:54:16.082Z,15.06
2023-05-14T02:57:41.116Z,14.97
2023-05-14T03:01:02.321Z,14.91
2023-05-14T03:04:08.294Z,14.85
2023-05-14T03:07:14.891Z,14.94
2023-05-14T03:10:41.709Z,14.86
2023-05-14T03:13:54.439Z,14.89
2023-05-14T03:16:58.640Z,15.17
2023-05-14T03:20:07.123Z,15.02
2023-05-14T03:23:15.642Z,14.93
2023-05-14T03:27:07.020Z,14.65
2023-05-14T03:29:44.559Z,14.17
2023-05-14T03:32:49.944Z,14.82
2023-05-14T03:39:17.132Z,15.12
2023-05-14T03:42:27.428Z,14.92
2023-05-14T03:45:31.163Z,14.93
2023-05-14T03:48:39.472Z,14.78
2023-05-14T03:51:43.821Z,14.70
2023-05-14T03:54:48.085Z,14.57
2023-05-14T03:57:52.273Z,14.54
2023-05-14T04:00:56.334Z,14.73
2023-05-14T04:04:00.069Z,14.61
2023-05-14T04:07:03.754Z,14.77
2023-05-14T04:10:07.672Z,14.84
2023-05-14T04:13:11.453Z,14.67
2023-05-14T04:16:15.465Z,14.44
2023-05-14T04:19:19.426Z,14.79
2023-05-14T04:22:23.622Z,14.92
2023-05-14T04:25:30.546Z,14.95
2023-05-14T04:28:34.735Z,14.71
2023-05-14T04:31:39.842Z,14.89
2023-05-14T04:34:43.886Z,14.75
2023-05-14T04:37:47.658Z,15.00
2023-05-14T04:40:52.092Z,15.20
2023-05-14T04:43:56.064Z,15.34
2023-05-14T04:47:00.283Z,15.30
2023-05-14T04:50:03.862Z,15.31
2023-05-14T04:53:08.097Z,15.36
2023-05-14T04:56:12.213Z,15.27
2023-05-14T04:59:15.928Z,14.50
2023-05-14T05:02:20.935Z,14.66
2023-05-14T05:05:25.124Z,14.95
2023-05-14T05:08:29.151Z,15.18
2023-05-14T05:11:33.351Z,14.95
2023-05-14T05:14:37.050Z,14.59
2023-05-14T05:17:41.101Z,14.54
2023-05-14T05:20:45.005Z,14.60
2023-05-14T05:23:49.082Z,14.30
2023-05-14T05:26:53.258Z,14.63
2023-05-14T05:29:57.076Z,14.69
2023-05-14T05:33:01.121Z,15.14
2023-05-14T05:36:05.259Z,14.89
2023-05-14T05:39:09.317Z,15.02
2023-05-14T05:42:13.077Z,15.44
2023-05-14T05:45:16.822Z,15.60
2023-05-14T05:48:20.896Z,15.76
2023-05-14T05:51:24.794Z,15.47
2023-05-14T05:54:28.848Z,15.23
2023-05-14T05:57:32.681Z,14.50
2023-05-14T06:00:36.702Z,14.02
2023-05-14T06:03:40.580Z,14.34
2023-05-14T06:06:44.432Z,15.02
2023-05-14T06:09:48.684Z,15.00
2023-05-14T06:12:52.647Z,15.41
2023-05-14T06:15:56.491Z,15.05
2023-05-14T06:19:00.454Z,14.98
2023-05-14T06:22:04.746Z,15.27
2023-05-14T06:25:11.064Z,15.63
2023-05-14T06:28:22.363Z,15.49
2023-05-14T06:31:26.512Z,15.79
2023-05-14T06:34:36.404Z,15.82
2023-05-14T06:37:40.268Z,15.86
2023-05-14T06:40:44.379Z,15.75
2023-05-14T06:43:48.600Z,15.76
2023-05-14T06:46:53.013Z,16.07
2023-05-14T06:49:56.908Z,16.08
2023-05-14T06:53:00.884Z,15.33
2023-05-14T06:56:04.713Z,15.67
2023-05-14T06:59:08.900Z,15.77
2023-05-14T07:02:13.191Z,16.15
2023-05-14T07:05:19.623Z,16.13
2023-05-14T07:08:23.771Z,15.49
2023-05-14T07:11:27.681Z,15.96
2023-05-14T07:14:31.921Z,16.28
2023-05-14T07:17:36.074Z,16.00
2023-05-14T07:20:40.155Z,16.45
2023-05-14T07:23:44.183Z,16.75
2023-05-14T07:26:52.502Z,16.92
2023-05-14T07:30:00.803Z,17.04
2023-05-14T07:33:07.363Z,17.05
2023-05-14T07:36:11.223Z,17.33
2023-05-14T07:39:18.537Z,17.47
2023-05-14T07:42:35.214Z,17.75
2023-05-14T07:45:40.996Z,17.78
2023-05-14T07:48:47.592Z,17.87
2023-05-14T07:51:52.885Z,16.47
2023-05-14T07:54:56.603Z,16.72
2023-05-14T07:58:01.712Z,16.43
2023-05-14T08:01:05.857Z,16.65
2023-05-14T08:04:10.929Z,17.49
2023-05-14T08:07:17.788Z,18.11
2023-05-14T08:13:44.018Z,18.05
2023-05-14T08:16:47.964Z,18.34
2023-05-14T08:19:52.145Z,18.56
2023-05-14T08:22:57.453Z,18.15
2023-05-14T08:26:02.846Z,18.66
2023-05-14T08:29:07.474Z,18.87
2023-05-14T08:32:22.911Z,18.61
2023-05-14T08:35:28.441Z,18.83
2023-05-14T08:38:36.663Z,18.19
2023-05-14T08:41:41.052Z,17.67
2023-05-14T08:44:46.320Z,17.09
2023-05-14T08:47:50.897Z,16.69
2023-05-14T08:50:55.110Z,17.20
2023-05-14T08:54:03.019Z,18.24
2023-05-14T09:00:25.077Z,19.21
2023-05-14T09:03:30.574Z,19.68
2023-05-14T09:06:36.538Z,19.69
2023-05-14T09:09:40.676Z,20.05
2023-05-14T09:12:44.294Z,19.97
2023-05-14T09:15:48.409Z,20.14
2023-05-14T09:18:52.225Z,20.08
2023-05-14T09:22:00.050Z,19.86
2023-05-14T09:25:03.990Z,19.74
2023-05-14T09:28:18.501Z,18.70
2023-05-14T09:31:22.752Z,18.45
2023-05-14T09:34:26.647Z,19.21
2023-05-14T09:37:30.664Z,18.63
2023-05-14T09:40:34.664Z,19.43
2023-05-14T09:43:39.797Z,19.64
2023-05-14T09:46:47.049Z,18.86
2023-05-14T09:49:54.107Z,18.75
2023-05-14T09:53:02.844Z,18.28
2023-05-14T09:56:39.996Z,18.45
2023-05-14T09:59:32.047Z,17.58
2023-05-14T10:02:36.082Z,17.43
2023-05-14T10:05:43.662Z,18.03
2023-05-14T10:08:47.824Z,18.20
2023-05-14T10:11:54.311Z,18.00
2023-05-14T10:14:58.350Z,18.01
2023-05-14T10:18:02.730Z,18.40
2023-05-14T10:21:06.709Z,17.82
2023-05-14T10:24:18.040Z,18.55
2023-05-14T10:27:22.139Z,18.87
2023-05-14T10:30:26.250Z,19.22
2023-05-14T10:33:30.252Z,19.37
2023-05-14T10:36:34.142Z,19.41
2023-05-14T10:39:38.102Z,19.46
2023-05-14T10:42:42.120Z,19.11
2023-05-14T10:45:49.909Z,18.31
2023-05-14T10:48:53.867Z,19.14
2023-05-14T10:51:57.706Z,19.52
2023-05-14T10:55:03.461Z,19.93
2023-05-14T10:58:07.749Z,19.39
2023-05-14T11:01:11.740Z,18.66
2023-05-14T11:04:15.634Z,18.91
2023-05-14T11:07:19.605Z,19.47
2023-05-14T11:10:28.467Z,18.90
2023-05-14T11:13:32.924Z,19.00
2023-05-14T11:16:37.051Z,19.00
2023-05-14T11:19:40.937Z,19.39
2023-05-14T11:22:44.668Z,19.79
2023-05-14T11:25:48.801Z,19.45
2023-05-14T11:28:52.777Z,19.94
2023-05-14T11:31:56.901Z,18.88
2023-05-14T11:35:00.534Z,18.81
2023-05-14T11:38:06.076Z,19.85
2023-05-14T11:41:10.770Z,19.78
2023-05-14T11:44:14.892Z,20.18
2023-05-14T11:47:18.875Z,20.18
2023-05-14T11:50:23.041Z,20.09
2023-05-14T11:53:27.428Z,19.96
2023-05-14T11:56:31.293Z,19.48
2023-05-14T11:59:35.700Z,19.07
2023-05-14T12:02:43.506Z,19.51
2023-05-14T12:05:47.625Z,20.17
2023-05-14T12:08:51.262Z,20.16
2023-05-14T12:11:55.251Z,20.41
2023-05-14T12:14:59.427Z,20.48
2023-05-14T12:18:03.872Z,20.94
2023-05-14T12:27:37.454Z,20.30
2023-05-14T12:30:43.612Z,20.08
2023-05-14T12:33:47.584Z,19.99
2023-05-14T12:36:51.461Z,19.35
2023-05-14T12:39:55.463Z,20.03
2023-05-14T12:42:59.166Z,20.53
2023-05-14T12:46:03.147Z,20.94
2023-05-14T12:49:09.873Z,20.78
2023-05-14T12:55:26.530Z,21.46
2023-05-14T12:58:40.773Z,21.37
2023-05-14T13:01:46.157Z,21.52
2023-05-14T13:04:53.538Z,22.05
2023-05-14T13:07:57.441Z,21.59
2023-05-14T13:11:04.261Z,20.51
2023-05-14T13:14:08.443Z,20.46
2023-05-14T13:17:12.442Z,20.78
2023-05-14T13:20:16.383Z,20.71
2023-05-14T13:23:20.808Z,20.83
2023-05-14T13:26:25.710Z,21.41
2023-05-14T13:29:30.200Z,21.41
2023-05-14T13:32:35.831Z,21.45
2023-05-14T13:35:40.158Z,21.15
2023-05-14T13:38:47.507Z,20.66
2023-05-14T13:41:53.030Z,21.05
2023-05-14T13:45:01.282Z,20.40
2023-05-14T13:48:05.546Z,20.89
2023-05-14T13:51:10.506Z,21.24
2023-05-14T13:54:14.458Z,20.89
2023-05-14T13:57:19.873Z,20.96
2023-05-14T14:00:24.293Z,20.96
2023-05-14T14:03:29.831Z,20.76
2023-05-14T14:06:35.073Z,20.91
2023-05-14T14:09:38.909Z,21.54
2023-05-14T14:12:42.918Z,21.15
2023-05-14T14:15:48.163Z,20.87
2023-05-14T14:18:53.739Z,20.88
2023-05-14T14:22:04.918Z,20.17
2023-05-14T14:25:44.290Z,20.88
2023-05-14T14:39:44.111Z,20.80
2023-05-14T14:46:17.151Z,20.92
2023-05-14T15:01:48.878Z,21.04
2023-05-14T15:04:55.694Z,20.74
2023-05-14T15:07:59.705Z,21.07
2023-05-14T15:11:03.623Z,21.65
2023-05-14T15:17:37.125Z,21.94
2023-05-14T15:24:15.801Z,20.66
2023-05-14T15:27:23.074Z,20.28
2023-05-14T15:30:30.163Z,20.97
2023-05-14T15:39:42.659Z,21.32
2023-05-14T15:42:47.090Z,21.16
2023-05-14T15:45:50.809Z,21.44
2023-05-14T15:48:54.709Z,21.19
2023-05-14T15:51:58.445Z,20.81
2023-05-14T15:55:02.370Z,20.78
2023-05-14T15:58:07.987Z,20.31
2023-05-14T16:01:12.157Z,20.78
2023-05-14T16:04:16.058Z,20.43
2023-05-14T16:07:22.063Z,20.34
2023-05-14T16:21:48.105Z,19.70
2023-05-14T16:24:52.605Z,19.52
2023-05-14T16:27:56.749Z,19.52
2023-05-14T16:31:02.810Z,19.64
2023-05-14T16:34:07.929Z,19.85
2023-05-14T16:37:13.169Z,19.62
2023-05-14T16:40:17.563Z,19.21
2023-05-14T16:46:50.926Z,19.48
2023-05-14T16:49:55.122Z,19.31
2023-05-14T16:52:59.550Z,18.80
2023-05-14T16:56:03.355Z,18.85
2023-05-14T16:59:07.389Z,19.20
2023-05-14T17:02:11.721Z,19.23
2023-05-14T17:05:15.726Z,19.19
2023-05-14T17:08:20.942Z,19.27
2023-05-14T17:11:27.151Z,17.92
2023-05-14T17:14:31.078Z,18.50
2023-05-14T17:17:36.715Z,19.11
2023-05-14T17:20:42.256Z,19.20
2023-05-14T17:23:46.761Z,19.35
2023-05-14T17:26:50.973Z,18.93
2023-05-14T17:29:54.986Z,18.91
2023-05-14T17:33:02.862Z,18.58
2023-05-14T17:36:08.117Z,18.59
2023-05-14T17:39:12.172Z,18.59
2023-05-14T17:42:17.774Z,17.96
2023-05-14T17:45:26.581Z,18.07
2023-05-14T17:48:31.045Z,18.25
2023-05-14T17:51:36.112Z,18.20
2023-05-14T17:54:40.255Z,18.48
2023-05-14T17:57:44.175Z,17.65
2023-05-14T18:00:48.176Z,17.98
2023-05-14T18:03:52.238Z,18.12
2023-05-14T18:06:56.384Z,18.32
2023-05-14T18:10:00.436Z,18.04
2023-05-14T18:13:05.966Z,18.35
2023-05-14T18:16:10.039Z,18.41
2023-05-14T18:19:14.122Z,17.94
2023-05-14T18:22:18.139Z,18.08
2023-05-14T18:25:22.065Z,18.35
2023-05-14T18:28:26.384Z,18.38
2023-05-14T18:31:30.302Z,17.75
2023-05-14T18:34:38.762Z,18.14
2023-05-14T18:37:42.914Z,17.84
2023-05-14T18:40:48.070Z,17.83
2023-05-14T18:43:52.245Z,17.40
2023-05-14T18:46:58.065Z,17.36
2023-05-14T18:50:15.354Z,17.01
2023-05-14T18:53:19.650Z,16.39
2023-05-14T18:56:26.942Z,16.27
2023-05-14T18:59:41.284Z,16.07
2023-05-14T19:02:45.890Z,15.91
2023-05-14T19:06:13.030Z,15.73
2023-05-14T19:09:18.525Z,15.83
2023-05-14T19:12:23.782Z,15.75
2023-05-14T19:15:28.241Z,15.52
2023-05-14T19:18:36.979Z,15.47
2023-05-14T19:24:24.143Z,14.31
2023-05-14T19:27:28.140Z,14.35
2023-05-14T19:30:33.357Z,14.04
2023-05-14T19:33:37.373Z,14.25
2023-05-14T19:36:41.156Z,13.98
2023-05-14T19:39:45.081Z,14.22
2023-05-14T19:42:48.914Z,14.61
2023-05-14T19:45:53.021Z,14.72
2023-05-14T19:48:59.182Z,14.75
2023-05-14T19:52:02.905Z,14.79
2023-05-14T19:55:15.555Z,14.66
2023-05-14T19:58:19.304Z,14.37
2023-05-14T20:01:23.700Z,14.52
2023-05-14T20:04:31.690Z,14.77
2023-05-14T20:07:36.006Z,14.78
2023-05-14T20:10:40.835Z,14.81
2023-05-14T20:13:44.771Z,15.15
2023-05-14T20:16:49.013Z,14.88
2023-05-14T20:19:57.055Z,15.16
2023-05-14T20:23:01.155Z,15.31
2023-05-14T20:26:07.185Z,15.27
2023-05-14T20:29:11.343Z,15.24
2023-05-14T20:32:15.334Z,15.32
2023-05-14T20:35:20.251Z,15.24
2023-05-14T20:38:24.276Z,15.37
2023-05-14T20:41:28.455Z,15.40
2023-05-14T20:44:32.837Z,15.47
2023-05-14T20:47:36.929Z,14.89
2023-05-14T20:50:40.856Z,14.90
2023-05-14T20:53:44.852Z,15.35
2023-05-14T20:56:48.800Z,15.42
2023-05-14T20:59:53.035Z,15.30
2023-05-14T21:02:57.245Z,15.22
2023-05-14T21:06:01.324Z,15.13
2023-05-14T21:09:05.514Z,14.98
2023-05-14T21:12:09.755Z,14.74
2023-05-14T21:15:13.884Z,14.88
2023-05-14T21:18:17.896Z,15.10
2023-05-14T21:21:22.116Z,15.20
2023-05-14T21:24:26.302Z,14.96
2023-05-14T21:27:30.273Z,14.73
2023-05-14T21:30:34.278Z,14.74
2023-05-14T21:33:38.290Z,14.72
2023-05-14T21:36:42.454Z,14.40
2023-05-14T21:39:46.609Z,15.02
2023-05-14T21:42:50.418Z,15.24
2023-05-14T21:45:54.616Z,14.89
2023-05-14T21:48:58.687Z,15.02
2023-05-14T21:52:02.940Z,15.11
2023-05-14T21:55:07.021Z,15.08
2023-05-14T21:58:10.746Z,14.93
2023-05-14T22:01:14.695Z,14.99
2023-05-14T22:04:18.681Z,15.22
2023-05-14T22:07:22.490Z,15.41
2023-05-14T22:10:26.356Z,15.32
2023-05-14T22:13:29.927Z,15.52
2023-05-14T22:16:33.892Z,15.64
2023-05-14T22:19:37.937Z,15.55
2023-05-14T22:22:41.950Z,15.50
2023-05-14T22:25:46.155Z,15.47
2023-05-14T22:28:49.934Z,15.40
2023-05-14T22:31:54.135Z,15.30
2023-05-14T22:34:59.805Z,15.37
2023-05-14T22:38:05.538Z,15.03
2023-05-14T22:41:09.614Z,15.28
2023-05-14T22:44:13.245Z,15.32
2023-05-14T22:47:17.400Z,15.33
2023-05-14T22:50:21.662Z,15.48
2023-05-14T22:53:25.615Z,15.17
2023-05-14T22:56:29.851Z,14.73
2023-05-14T22:59:34.865Z,14.85
2023-05-14T23:02:38.938Z,14.66
2023-05-14T23:05:44.005Z,14.90
2023-05-14T23:08:48.058Z,14.90
2023-05-14T23:11:51.987Z,15.30
2023-05-14T23:14:55.834Z,14.78
2023-05-14T23:17:59.877Z,14.68
2023-05-14T23:21:03.950Z,14.76
2023-05-14T23:24:07.603Z,14.93
2023-05-14T23:27:11.681Z,15.45
2023-05-14T23:30:15.519Z,15.19
2023-05-14T23:33:19.681Z,14.88
2023-05-14T23:36:23.819Z,15.13
2023-05-14T23:39:27.820Z,15.32
2023-05-14T23:42:31.769Z,15.26
2023-05-14T23:45:35.916Z,15.29
2023-05-14T23:48:41.170Z,15.22
2023-05-14T23:51:45.545Z,14.98
2023-05-14T23:54:49.607Z,15.06
2023-05-14T23:57:53.323Z,14.72
